createdAt,value
2018-03-21T00:00:59.183Z,102845.00
2018-03-21T00:03:28.391Z,102848.61
2018-03-21T00:05:57.379Z,102848.61
2018-03-21T00:08:27.437Z,102848.62
2018-03-21T00:10:56.913Z,102846.87
2018-03-21T00:13:25.982Z,102855.93
2018-03-21T00:15:55.130Z,102852.80
2018-03-21T00:18:24.513Z,102854.59
2018-03-21T00:20:53.578Z,102852.84
2018-03-21T00:23:22.660Z,102854.23
2018-03-21T00:25:51.996Z,102851.05
2018-03-21T00:28:21.710Z,102851.97
2018-03-21T00:30:50.766Z,102856.50
2018-03-21T00:33:20.218Z,102858.38
2018-03-21T00:35:49.114Z,102863.78
2018-03-21T00:38:18.212Z,102856.59
2018-03-21T00:40:47.290Z,102854.80
2018-03-21T00:43:16.355Z,102861.13
2018-03-21T00:45:45.432Z,102855.33
2018-03-21T00:48:14.878Z,102856.20
2018-03-21T00:50:43.940Z,102853.50
2018-03-21T00:53:13.010Z,102856.24
2018-03-21T00:55:42.462Z,102860.25
2018-03-21T00:58:11.527Z,102858.51
2018-03-21T01:00:40.589Z,102862.17
2018-03-21T01:03:09.994Z,102864.44
2018-03-21T01:05:39.073Z,102861.30
2018-03-21T01:08:08.130Z,102859.47
2018-03-21T01:10:37.529Z,102859.03
2018-03-21T01:13:06.595Z,102857.69
2018-03-21T01:15:35.650Z,102857.67
2018-03-21T01:18:04.725Z,102858.98
2018-03-21T01:20:33.793Z,102859.38
2018-03-21T01:23:02.893Z,102862.08
2018-03-21T01:25:32.343Z,102859.38
2018-03-21T01:28:01.394Z,102852.58
2018-03-21T01:30:30.456Z,102857.98
2018-03-21T01:32:59.817Z,102856.59
2018-03-21T01:35:28.694Z,102852.10
2018-03-21T01:37:57.610Z,102852.54
2018-03-21T01:40:26.510Z,102851.18
2018-03-21T01:42:55.397Z,102854.77
2018-03-21T01:45:24.490Z,102853.84
2018-03-21T01:47:53.893Z,102855.67
2018-03-21T01:50:22.949Z,102847.56
2018-03-21T01:53:03.654Z,102852.05
2018-03-21T01:55:32.654Z,102847.05
2018-03-21T01:58:01.646Z,102844.83
2018-03-21T02:00:31.040Z,102850.70
2018-03-21T02:02:59.949Z,102844.83
2018-03-21T02:05:29.007Z,102851.14
2018-03-21T02:07:58.407Z,102852.45
2018-03-21T02:10:27.466Z,102855.58
2018-03-21T02:12:56.530Z,102852.02
2018-03-21T02:15:25.613Z,102848.88
2018-03-21T02:17:54.685Z,102850.19
2018-03-21T02:20:23.768Z,102849.75
2018-03-21T02:22:53.083Z,102846.13
2018-03-21T02:25:22.140Z,102844.78
2018-03-21T02:27:51.189Z,102844.78
2018-03-21T02:30:20.362Z,102847.56
2018-03-21T02:32:49.414Z,102848.88
2018-03-21T02:35:18.483Z,102849.79
2018-03-21T02:37:47.961Z,102851.10
2018-03-21T02:40:16.862Z,102850.70
2018-03-21T02:42:45.929Z,102849.31
2018-03-21T02:45:15.356Z,102853.31
2018-03-21T02:47:44.415Z,102857.37
2018-03-21T02:50:13.482Z,102855.11
2018-03-21T02:52:42.965Z,102853.77
2018-03-21T02:55:12.027Z,102851.53
2018-03-21T02:57:40.910Z,102849.27
2018-03-21T03:00:10.343Z,102854.67
2018-03-21T03:02:39.404Z,102857.37
2018-03-21T03:05:11.358Z,102863.22
2018-03-21T03:07:40.318Z,102855.58
2018-03-21T03:10:09.326Z,102853.31
2018-03-21T03:12:38.695Z,102854.67
2018-03-21T03:15:07.747Z,102857.37
2018-03-21T03:17:36.807Z,102850.19
2018-03-21T03:20:05.906Z,102846.13
2018-03-21T03:22:34.971Z,102847.92
2018-03-21T03:25:04.038Z,102842.95
2018-03-21T03:27:33.423Z,102839.81
2018-03-21T03:30:02.496Z,102839.38
2018-03-21T03:32:31.583Z,102847.00
2018-03-21T03:35:00.938Z,102841.55
2018-03-21T03:37:29.935Z,102833.53
2018-03-21T03:39:59.048Z,102839.38
2018-03-21T03:42:28.128Z,102836.28
2018-03-21T03:44:56.938Z,102836.28
2018-03-21T03:47:25.938Z,102835.41
2018-03-21T03:49:55.314Z,102837.68
2018-03-21T03:52:24.382Z,102837.77
2018-03-21T03:54:53.433Z,102838.62
2018-03-21T03:57:22.933Z,102836.41
2018-03-21T03:59:51.985Z,102840.95
2018-03-21T04:02:20.969Z,102833.28
2018-03-21T04:04:50.069Z,102838.24
2018-03-21T04:07:19.152Z,102836.94
2018-03-21T04:09:48.217Z,102838.30
2018-03-21T04:12:17.691Z,102836.63
2018-03-21T04:14:46.746Z,102838.06
2018-03-21T04:17:15.805Z,102848.44
2018-03-21T04:19:45.162Z,102843.03
2018-03-21T04:22:13.973Z,102841.73
2018-03-21T04:24:43.034Z,102840.86
2018-03-21T04:27:12.115Z,102841.77
2018-03-21T04:29:41.179Z,102839.59
2018-03-21T04:32:10.239Z,102839.64
2018-03-21T04:34:39.603Z,102838.25
2018-03-21T04:37:08.473Z,102833.02
2018-03-21T04:39:37.465Z,102829.84
2018-03-21T04:42:06.926Z,102832.14
2018-03-21T04:44:35.798Z,102835.37
2018-03-21T04:47:04.685Z,102831.36
2018-03-21T04:49:33.517Z,102832.67
2018-03-21T04:52:02.414Z,102826.39
2018-03-21T04:54:31.697Z,102825.61
2018-03-21T04:57:00.580Z,102828.36
2018-03-21T04:59:29.386Z,102822.48
2018-03-21T05:01:58.459Z,102825.27
2018-03-21T05:04:28.073Z,102823.48
2018-03-21T05:07:02.652Z,102825.35
2018-03-21T05:09:32.107Z,102831.23
2018-03-21T05:12:06.668Z,102828.53
2018-03-21T05:14:36.045Z,102832.15
2018-03-21T05:17:05.110Z,102836.64
2018-03-21T05:19:34.188Z,102832.58
2018-03-21T05:22:03.389Z,102838.50
2018-03-21T05:24:32.457Z,102838.98
2018-03-21T05:27:01.527Z,102840.77
2018-03-21T05:29:31.227Z,102839.94
2018-03-21T05:32:00.281Z,102839.89
2018-03-21T05:34:31.042Z,102847.09
2018-03-21T05:37:00.102Z,102853.00
2018-03-21T05:39:29.131Z,102847.56
2018-03-21T05:41:58.210Z,102852.53
2018-03-21T05:44:27.246Z,102849.35
2018-03-21T05:46:56.302Z,102850.27
2018-03-21T05:49:25.645Z,102847.16
2018-03-21T05:51:54.703Z,102843.52
2018-03-21T05:54:23.754Z,102838.11
2018-03-21T05:56:53.248Z,102848.52
2018-03-21T05:59:22.301Z,102852.09
2018-03-21T06:01:51.985Z,102849.43
2018-03-21T06:04:21.400Z,102852.13
2018-03-21T06:06:50.687Z,102850.78
2018-03-21T06:09:19.711Z,102853.48
2018-03-21T06:11:49.090Z,102849.88
2018-03-21T06:14:18.146Z,102850.78
2018-03-21T06:16:47.215Z,102847.64
2018-03-21T06:19:16.558Z,102847.65
2018-03-21T06:21:45.506Z,102848.56
2018-03-21T06:24:14.528Z,102857.09
2018-03-21T06:26:43.863Z,102861.63
2018-03-21T06:29:13.078Z,102856.66
2018-03-21T06:31:42.136Z,102859.84
2018-03-21T06:34:11.157Z,102857.61
2018-03-21T06:36:40.224Z,102864.85
2018-03-21T06:39:09.291Z,102868.42
2018-03-21T06:41:38.544Z,102866.20
2018-03-21T06:44:07.606Z,102869.41
2018-03-21T06:46:36.677Z,102867.55
2018-03-21T06:49:06.098Z,102866.72
2018-03-21T06:51:35.170Z,102868.11
2018-03-21T06:54:04.221Z,102868.07
2018-03-21T06:56:33.558Z,102870.77
2018-03-21T06:59:02.622Z,102871.68
2018-03-21T07:01:31.638Z,102877.48
2018-03-21T07:04:00.961Z,102879.27
2018-03-21T07:06:29.857Z,102882.01
2018-03-21T07:09:00.061Z,102877.91
2018-03-21T07:11:29.157Z,102877.52
2018-03-21T07:14:09.634Z,102878.91
2018-03-21T07:16:46.866Z,102874.91
2018-03-21T07:19:15.929Z,102869.94
2018-03-21T07:21:45.001Z,102869.06
2018-03-21T07:24:14.467Z,102869.98
2018-03-21T07:26:43.526Z,102872.72
2018-03-21T07:29:12.612Z,102877.25
2018-03-21T07:31:41.522Z,102880.86
2018-03-21T07:34:10.518Z,102884.91
2018-03-21T07:36:39.591Z,102882.65
2018-03-21T07:39:08.700Z,102883.56
2018-03-21T07:41:37.758Z,102887.57
2018-03-21T07:44:06.771Z,102884.91
2018-03-21T07:46:35.802Z,102888.53
2018-03-21T07:49:04.680Z,102889.88
2018-03-21T07:51:33.699Z,102896.15
2018-03-21T07:54:02.854Z,102885.87
2018-03-21T07:56:31.962Z,102891.27
2018-03-21T07:59:01.133Z,102892.66
2018-03-21T08:01:30.416Z,102886.78
2018-03-21T08:03:59.487Z,102887.22
2018-03-21T08:06:28.560Z,102883.48
2018-03-21T08:08:57.921Z,102882.96
2018-03-21T08:11:26.935Z,102886.05
2018-03-21T08:13:56.040Z,102885.93
2018-03-21T08:16:25.194Z,102882.71
2018-03-21T08:18:54.509Z,102882.67
2018-03-21T08:21:23.616Z,102883.59
2018-03-21T08:23:53.187Z,102883.81
2018-03-21T08:26:22.311Z,102887.73
2018-03-21T08:28:51.384Z,102885.46
2018-03-21T08:31:20.491Z,102890.73
2018-03-21T08:33:49.583Z,102888.87
2018-03-21T08:36:18.643Z,102886.04
2018-03-21T08:38:47.666Z,102890.88
2018-03-21T08:41:16.827Z,102883.61
2018-03-21T08:43:45.909Z,102879.94
2018-03-21T08:46:14.998Z,102881.17
2018-03-21T08:48:44.064Z,102887.92
2018-03-21T08:51:13.139Z,102890.97
2018-03-21T08:53:43.271Z,102888.58
2018-03-21T08:56:12.327Z,102889.45
2018-03-21T08:58:41.392Z,102883.97
2018-03-21T09:01:11.380Z,102877.95
2018-03-21T09:03:40.457Z,102882.39
2018-03-21T09:06:09.480Z,102884.09
2018-03-21T09:08:38.610Z,102887.14
2018-03-21T09:11:07.651Z,102883.44
2018-03-21T09:13:36.784Z,102883.79
2018-03-21T09:16:06.199Z,102885.40
2018-03-21T09:18:35.281Z,102880.77
2018-03-21T09:21:04.367Z,102881.59
2018-03-21T09:23:33.462Z,102882.95
2018-03-21T09:26:02.526Z,102883.77
2018-03-21T09:28:31.664Z,102881.46
2018-03-21T09:31:00.903Z,102871.95
2018-03-21T09:33:30.031Z,102876.27
2018-03-21T09:35:59.114Z,102879.40
2018-03-21T09:38:28.255Z,102877.05
2018-03-21T09:40:57.390Z,102874.69
2018-03-21T09:43:26.395Z,102881.06
2018-03-21T09:45:55.490Z,102879.66
2018-03-21T09:48:24.557Z,102877.87
2018-03-21T09:50:53.617Z,102880.43
2018-03-21T09:53:22.642Z,102875.41
2018-03-21T09:55:51.756Z,102868.07
2018-03-21T09:58:21.002Z,102869.47
2018-03-21T10:00:50.127Z,102864.06
2018-03-21T10:03:19.533Z,102862.09
2018-03-21T10:05:48.669Z,102861.08
2018-03-21T10:08:17.706Z,102860.13
2018-03-21T10:10:46.808Z,102857.86
2018-03-21T10:13:15.884Z,102849.35
2018-03-21T10:15:45.025Z,102850.55
2018-03-21T10:18:14.204Z,102848.20
2018-03-21T10:20:43.212Z,102841.44
2018-03-21T10:23:12.229Z,102843.22
2018-03-21T10:25:41.294Z,102846.80
2018-03-21T10:28:10.371Z,102846.85
2018-03-21T10:30:39.478Z,102849.55
2018-03-21T10:33:08.303Z,102845.05
2018-03-21T10:35:37.376Z,102843.23
2018-03-21T10:38:06.355Z,102854.23
2018-03-21T10:40:35.417Z,102846.41
2018-03-21T10:43:04.259Z,102848.64
2018-03-21T10:45:33.351Z,102840.61
2018-03-21T10:48:02.469Z,102842.93
2018-03-21T10:50:31.538Z,102845.67
2018-03-21T10:53:00.642Z,102844.48
2018-03-21T10:55:29.758Z,102841.34
2018-03-21T10:57:58.843Z,102843.33
2018-03-21T11:00:28.212Z,102850.09
2018-03-21T11:03:02.908Z,102850.48
2018-03-21T11:05:32.441Z,102843.37
2018-03-21T11:08:01.521Z,102843.28
2018-03-21T11:10:30.606Z,102852.27
2018-03-21T11:13:00.052Z,102852.08
2018-03-21T11:15:29.138Z,102851.98
2018-03-21T11:17:58.220Z,102847.63
2018-03-21T11:20:27.324Z,102848.50
2018-03-21T11:22:56.385Z,102848.06
2018-03-21T11:25:25.451Z,102843.63
2018-03-21T11:27:54.544Z,102845.41
2018-03-21T11:30:23.678Z,102844.97
2018-03-21T11:32:52.748Z,102845.50
2018-03-21T11:35:22.138Z,102838.30
2018-03-21T11:37:51.219Z,102846.77
2018-03-21T11:40:20.279Z,102842.27
2018-03-21T11:42:49.674Z,102843.57
2018-03-21T11:45:18.512Z,102847.67
2018-03-21T11:47:47.442Z,102839.99
2018-03-21T11:50:16.661Z,102834.54
2018-03-21T11:52:45.719Z,102837.64
2018-03-21T11:55:14.774Z,102828.59
2018-03-21T11:57:44.101Z,102828.07
2018-03-21T12:00:13.203Z,102826.09
2018-03-21T12:02:42.294Z,102828.84
2018-03-21T12:05:11.402Z,102825.70
2018-03-21T12:07:41.359Z,102824.79
2018-03-21T12:10:10.513Z,102822.07
2018-03-21T12:12:39.872Z,102822.89
2018-03-21T12:15:08.940Z,102806.67
2018-03-21T12:17:38.010Z,102794.81
2018-03-21T12:20:07.095Z,102791.59
2018-03-21T12:22:36.163Z,102787.53
2018-03-21T12:25:05.218Z,102788.01
2018-03-21T12:27:34.321Z,102782.98
2018-03-21T12:30:03.374Z,102776.66
2018-03-21T12:32:32.462Z,102780.61
2018-03-21T12:35:01.817Z,102778.93
2018-03-21T12:37:30.905Z,102777.80
2018-03-21T12:40:00.008Z,102769.59
2018-03-21T12:42:29.502Z,102771.86
2018-03-21T12:44:58.591Z,102781.67
2018-03-21T12:47:27.669Z,102772.25
2018-03-21T12:49:56.768Z,102774.52
2018-03-21T12:52:26.076Z,102774.42
2018-03-21T12:54:55.158Z,102773.55
2018-03-21T12:57:24.257Z,102765.86
2018-03-21T12:59:53.330Z,102769.54
2018-03-21T13:02:22.426Z,102767.16
2018-03-21T13:04:51.502Z,102764.62
2018-03-21T13:07:20.578Z,102762.13
2018-03-21T13:09:49.637Z,102763.44
2018-03-21T13:12:18.773Z,102764.70
2018-03-21T13:14:47.841Z,102759.77
2018-03-21T13:17:16.905Z,102759.72
2018-03-21T13:19:46.035Z,102761.94
2018-03-21T13:22:15.338Z,102761.88
2018-03-21T13:24:44.394Z,102755.94
2018-03-21T13:27:13.922Z,102754.21
2018-03-21T13:29:42.983Z,102750.95
2018-03-21T13:32:12.086Z,102734.27
2018-03-21T13:34:41.514Z,102734.27
2018-03-21T13:37:10.645Z,102733.20
2018-03-21T13:39:39.716Z,102737.53
2018-03-21T13:42:08.827Z,102736.95
2018-03-21T13:44:37.883Z,102725.57
2018-03-21T13:47:06.954Z,102729.65
2018-03-21T13:49:36.102Z,102735.55
2018-03-21T13:52:05.168Z,102735.48
2018-03-21T13:54:34.224Z,102737.75
2018-03-21T13:57:03.303Z,102739.11
2018-03-21T13:59:32.373Z,102738.09
2018-03-21T14:02:01.442Z,102732.30
2018-03-21T14:04:30.624Z,102735.44
2018-03-21T14:06:59.769Z,102730.55
2018-03-21T14:09:28.864Z,102722.38
2018-03-21T14:11:57.945Z,102720.55
2018-03-21T14:14:27.018Z,102715.67
2018-03-21T14:16:56.128Z,102713.73
2018-03-21T14:19:25.210Z,102715.99
2018-03-21T14:21:54.285Z,102708.91
2018-03-21T14:24:23.365Z,102711.03
2018-03-21T14:26:52.835Z,102713.18
2018-03-21T14:29:21.916Z,102710.37
2018-03-21T14:31:50.977Z,102709.83
2018-03-21T14:34:20.099Z,102709.02
2018-03-21T14:36:49.167Z,102708.86
2018-03-21T14:39:18.233Z,102707.83
2018-03-21T14:41:47.614Z,102705.19
2018-03-21T14:44:16.696Z,102710.69
2018-03-21T14:46:45.802Z,102710.38
2018-03-21T14:49:15.194Z,102714.11
2018-03-21T14:51:44.469Z,102710.53
2018-03-21T14:54:13.542Z,102710.81
2018-03-21T14:56:42.630Z,102700.95
2018-03-21T14:59:11.719Z,102705.73
2018-03-21T15:01:40.784Z,102707.98
2018-03-21T15:04:09.878Z,102701.55
2018-03-21T15:06:38.985Z,102698.51
2018-03-21T15:09:08.080Z,102691.91
2018-03-21T15:11:37.561Z,102684.50
2018-03-21T15:14:06.378Z,102688.06
2018-03-21T15:16:35.425Z,102684.83
2018-03-21T15:19:04.533Z,102678.53
2018-03-21T15:21:33.368Z,102668.47
2018-03-21T15:24:02.450Z,102672.97
2018-03-21T15:26:31.537Z,102671.17
2018-03-21T15:29:00.599Z,102670.16
2018-03-21T15:31:29.660Z,102659.91
2018-03-21T15:33:58.778Z,102653.73
2018-03-21T15:36:27.839Z,102649.30
2018-03-21T15:38:56.913Z,102653.94
2018-03-21T15:41:26.318Z,102646.31
2018-03-21T15:43:55.395Z,102646.73
2018-03-21T15:46:24.455Z,102649.24
2018-03-21T15:48:53.882Z,102646.86
2018-03-21T15:51:23.043Z,102645.88
2018-03-21T15:53:52.279Z,102643.87
2018-03-21T15:56:21.375Z,102640.25
2018-03-21T15:58:50.477Z,102640.45
2018-03-21T16:01:19.639Z,102637.77
2018-03-21T16:03:48.726Z,102642.20
2018-03-21T16:06:17.791Z,102640.13
2018-03-21T16:08:46.694Z,102634.84
2018-03-21T16:11:15.638Z,102640.69
2018-03-21T16:13:44.664Z,102634.52
2018-03-21T16:16:13.726Z,102633.37
2018-03-21T16:18:42.810Z,102631.59
2018-03-21T16:21:11.902Z,102631.69
2018-03-21T16:23:40.923Z,102630.94
2018-03-21T16:26:10.127Z,102627.42
2018-03-21T16:28:39.213Z,102617.17
2018-03-21T16:31:08.280Z,102621.73
2018-03-21T16:33:37.787Z,102618.70
2018-03-21T16:36:06.858Z,102615.29
2018-03-21T16:38:35.741Z,102615.96
2018-03-21T16:41:05.206Z,102618.87
2018-03-21T16:43:34.101Z,102613.56
2018-03-21T16:46:03.165Z,102609.66
2018-03-21T16:48:32.252Z,102610.26
2018-03-21T16:51:01.312Z,102609.11
2018-03-21T16:53:30.386Z,102615.55
2018-03-21T16:55:59.770Z,102609.27
2018-03-21T16:58:28.833Z,102615.66
2018-03-21T17:00:57.902Z,102614.41
2018-03-21T17:03:26.985Z,102618.61
2018-03-21T17:05:56.043Z,102611.03
2018-03-21T17:08:25.148Z,102607.52
2018-03-21T17:10:54.225Z,102606.70
2018-03-21T17:13:23.134Z,102604.44
2018-03-21T17:15:52.196Z,102600.42
2018-03-21T17:18:22.014Z,102598.27
2018-03-21T17:20:51.088Z,102597.44
2018-03-21T17:23:20.150Z,102600.20
2018-03-21T17:25:49.325Z,102590.80
2018-03-21T17:28:18.384Z,102594.89
2018-03-21T17:30:47.451Z,102592.30
2018-03-21T17:33:16.716Z,102591.42
2018-03-21T17:35:45.778Z,102592.93
2018-03-21T17:38:14.841Z,102586.12
2018-03-21T17:40:43.921Z,102591.09
2018-03-21T17:43:12.981Z,102591.59
2018-03-21T17:45:42.039Z,102593.05
2018-03-21T17:48:11.883Z,102583.19
2018-03-21T17:50:40.961Z,102585.45
2018-03-21T17:53:10.031Z,102588.27
2018-03-21T17:55:39.047Z,102586.44
2018-03-21T17:58:08.113Z,102589.19
2018-03-21T18:00:37.186Z,102591.03
2018-03-21T18:03:06.583Z,102585.71
2018-03-21T18:05:35.645Z,102590.59
2018-03-21T18:08:04.713Z,102590.74
2018-03-21T18:10:33.794Z,102582.58
2018-03-21T18:13:02.870Z,102576.31
2018-03-21T18:15:31.929Z,102573.70
2018-03-21T18:18:01.010Z,102571.48
2018-03-21T18:20:30.082Z,102573.64
2018-03-21T18:22:59.171Z,102565.11
2018-03-21T18:25:28.262Z,102562.94
2018-03-21T18:27:57.134Z,102558.02
2018-03-21T18:30:26.194Z,102552.70
2018-03-21T18:32:55.275Z,102554.06
2018-03-21T18:35:24.333Z,102550.44
2018-03-21T18:37:53.446Z,102547.79
2018-03-21T18:40:22.691Z,102541.90
2018-03-21T18:42:51.754Z,102552.72
2018-03-21T18:45:20.824Z,102545.07
2018-03-21T18:47:49.911Z,102544.28
2018-03-21T18:50:18.979Z,102543.85
2018-03-21T18:52:47.982Z,102540.71
2018-03-21T18:55:17.057Z,102549.30
2018-03-21T18:57:46.122Z,102542.50
2018-03-21T19:00:15.195Z,102543.91
2018-03-21T19:02:44.613Z,102537.30
2018-03-21T19:05:13.686Z,102535.94
2018-03-21T19:07:42.770Z,102531.94
2018-03-21T19:10:11.853Z,102533.78
2018-03-21T19:12:40.916Z,102528.86
2018-03-21T19:15:10.019Z,102525.78
2018-03-21T19:17:39.150Z,102533.06
2018-03-21T19:20:08.213Z,102523.60
2018-03-21T19:22:37.330Z,102524.52
2018-03-21T19:25:06.418Z,102525.82
2018-03-21T19:27:35.523Z,102518.20
2018-03-21T19:30:04.091Z,102518.73
2018-03-21T19:32:33.173Z,102509.21
2018-03-21T19:35:02.250Z,102500.73
2018-03-21T19:37:31.326Z,102509.80
2018-03-21T19:40:00.403Z,102504.28
2018-03-21T19:42:29.478Z,102499.77
2018-03-21T19:44:58.543Z,102493.87
2018-03-21T19:47:27.947Z,102490.29
2018-03-21T19:49:56.834Z,102487.16
2018-03-21T19:52:25.908Z,102482.67
2018-03-21T19:54:55.002Z,102480.02
2018-03-21T19:57:24.074Z,102476.02
2018-03-21T19:59:53.203Z,102474.13
2018-03-21T20:02:22.604Z,102472.73
2018-03-21T20:04:51.677Z,102474.56
2018-03-21T20:07:20.946Z,102463.27
2018-03-21T20:09:50.600Z,102463.21
2018-03-21T20:12:19.692Z,102455.16
2018-03-21T20:14:48.822Z,102446.19
2018-03-21T20:17:18.194Z,102444.34
2018-03-21T20:19:47.280Z,102443.00
2018-03-21T20:22:16.345Z,102429.63
2018-03-21T20:24:45.812Z,102421.91
2018-03-21T20:27:14.875Z,102424.13
2018-03-21T20:29:43.941Z,102407.58
2018-03-21T20:32:13.019Z,102408.49
2018-03-21T20:34:42.109Z,102401.25
2018-03-21T20:37:11.177Z,102395.84
2018-03-21T20:39:40.250Z,102393.67
2018-03-21T20:42:09.303Z,102388.66
2018-03-21T20:44:38.366Z,102386.44
2018-03-21T20:47:07.454Z,102384.55
2018-03-21T20:49:36.523Z,102383.69
2018-03-21T20:52:05.394Z,102375.20
2018-03-21T20:54:34.839Z,102374.77
2018-03-21T20:57:03.898Z,102373.84
2018-03-21T20:59:32.961Z,102371.12
2018-03-21T21:02:02.037Z,102372.06
2018-03-21T21:04:31.111Z,102365.36
2018-03-21T21:07:00.190Z,102370.27
2018-03-21T21:09:29.278Z,102362.05
2018-03-21T21:11:58.338Z,102356.91
2018-03-21T21:14:27.394Z,102345.52
2018-03-21T21:16:56.540Z,102343.61
2018-03-21T21:19:25.640Z,102339.45
2018-03-21T21:21:54.870Z,102325.77
2018-03-21T21:24:23.977Z,102323.94
2018-03-21T21:26:53.045Z,102316.66
2018-03-21T21:29:22.108Z,102319.80
2018-03-21T21:31:51.097Z,102311.58
2018-03-21T21:34:20.704Z,102313.36
2018-03-21T21:36:50.414Z,102311.95
2018-03-21T21:39:19.262Z,102309.58
2018-03-21T21:41:48.324Z,102307.73
2018-03-21T21:44:17.886Z,102295.67
2018-03-21T21:46:46.995Z,102293.77
2018-03-21T21:49:16.340Z,102285.18
2018-03-21T21:51:45.423Z,102277.92
2018-03-21T21:54:14.863Z,102278.79
2018-03-21T21:56:43.936Z,102278.23
2018-03-21T21:59:13.076Z,102269.71
2018-03-21T22:01:42.318Z,102262.45
2018-03-21T22:04:11.374Z,102249.75
2018-03-21T22:06:40.429Z,102257.47
2018-03-21T22:09:09.517Z,102256.07
2018-03-21T22:11:38.581Z,102258.30
2018-03-21T22:14:07.643Z,102253.78
2018-03-21T22:16:36.726Z,102245.20
2018-03-21T22:19:05.793Z,102252.81
2018-03-21T22:21:34.845Z,102247.46
2018-03-21T22:24:03.929Z,102243.30
2018-03-21T22:26:32.984Z,102239.68
2018-03-21T22:29:02.043Z,102231.55
2018-03-21T22:31:31.109Z,102224.79
2018-03-21T22:34:00.197Z,102222.91
2018-03-21T22:36:29.248Z,102220.25
2018-03-21T22:38:58.612Z,102210.78
2018-03-21T22:41:27.689Z,102208.95
2018-03-21T22:43:56.742Z,102211.59
2018-03-21T22:46:26.547Z,102201.69
2018-03-21T22:48:55.605Z,102194.39
2018-03-21T22:51:24.669Z,102196.27
2018-03-21T22:53:54.032Z,102191.20
2018-03-21T22:56:23.155Z,102186.66
2018-03-21T22:58:52.218Z,102183.09
2018-03-21T23:01:21.670Z,102175.83
2018-03-21T23:03:50.727Z,102169.49
2018-03-21T23:06:19.810Z,102165.00
2018-03-21T23:08:48.716Z,102164.95
2018-03-21T23:11:17.782Z,102165.39
2018-03-21T23:13:46.845Z,102164.52
2018-03-21T23:16:16.221Z,102163.60
2018-03-21T23:18:45.157Z,102160.41
2018-03-21T23:21:14.228Z,102163.12
2018-03-21T23:23:43.318Z,102157.25
2018-03-21T23:26:12.374Z,102156.34
2018-03-21T23:28:41.468Z,102145.08
2018-03-21T23:31:11.119Z,102153.14
2018-03-21T23:33:40.183Z,102153.14
2018-03-21T23:36:09.233Z,102140.98
2018-03-21T23:38:38.310Z,102141.89
2018-03-21T23:41:07.404Z,102136.92
2018-03-21T23:43:36.466Z,102135.64
2018-03-21T23:46:05.787Z,102137.86
2018-03-21T23:48:34.873Z,102138.33
2018-03-21T23:51:03.977Z,102129.72
2018-03-21T23:53:33.573Z,102127.94
2018-03-21T23:56:02.639Z,102122.48
2018-03-21T23:58:31.715Z,102115.34
